Terminal Aerodrome Forecast
Issued by NWS

Home | Current Version | Previous Version | Text Only | Print | Product List | Glossary On
Versions: 1 2 3 4 5 6 7 8 9 10 11 12 13 14 15 16 17 18 19 20 21 22 23 24 25
470
FTUS43 KABR 260539
TAFMBG
TAF
KMBG 260539Z 2606/2706 36016G22KT P6SM OVC017
     FM261500 35015G24KT P6SM OVC015
     FM262100 35009KT P6SM BKN050
     FM270200 03007KT P6SM SCT250=

USA.gov is the U.S. government's official web portal to all federal, state and local government web resources and services.